Time;durP1;ratioP1;P1;durP2;ratioP2;P2;SDS_P1;SDS_P2;PMS_P1;PMS_P2;Temp;Humidity;BMP_temperature;BMP_pressure;BME280_temperature;BME280_humidity;BME280_pressure;Samples;Min_cycle;Max_cycle;Signal;HPM_P1;HPM_P2
2023/03/27 00:02:32;;;;;;;4.88;3.22;;;7.90;99.90;;;;;;2603398;54;20190;31
2023/03/27 00:05:09;;;;;;;6.10;3.67;;;7.90;99.90;;;;;;2603631;54;20883;31
2023/03/27 00:07:44;;;;;;;8.70;3.70;;;7.90;99.90;;;;;;2603350;54;20901;31
2023/03/27 00:10:22;;;;;;;6.17;3.57;;;7.90;99.90;;;;;;2603552;54;20052;31
2023/03/27 00:12:59;;;;;;;6.20;3.60;;;7.90;99.90;;;;;;2621693;46;20319;31
2023/03/27 00:15:34;;;;;;;5.07;3.53;;;8.00;99.90;;;;;;2603250;54;20269;31
2023/03/27 00:18:12;;;;;;;5.50;3.55;;;8.00;99.90;;;;;;2603414;54;20026;31
2023/03/27 00:20:48;;;;;;;7.15;3.60;;;8.00;99.90;;;;;;2603344;54;20904;31
2023/03/27 00:23:24;;;;;;;5.30;3.90;;;7.90;99.90;;;;;;2603032;54;20879;31
2023/03/27 00:26:03;;;;;;;9.40;4.70;;;7.90;99.90;;;;;;2603626;54;20050;31
2023/03/27 00:28:37;;;;;;;6.35;3.60;;;7.90;99.90;;;;;;2603220;54;20606;31
2023/03/27 00:31:12;;;;;;;7.20;4.35;;;7.90;99.90;;;;;;2621795;46;20577;31
2023/03/27 00:33:57;;;;;;;8.00;3.97;;;7.80;99.90;;;;;;2602666;54;20026;31
2023/03/27 00:36:33;;;;;;;5.53;3.67;;;7.80;99.90;;;;;;2603483;54;20023;31
2023/03/27 00:39:07;;;;;;;5.60;3.85;;;7.80;99.90;;;;;;2603255;54;20542;31
2023/03/27 00:41:47;;;;;;;6.85;3.70;;;7.70;99.90;;;;;;2603174;54;20079;31
2023/03/27 00:44:33;;;;;;;8.45;4.20;;;7.70;99.90;;;;;;2621574;46;20919;31
2023/03/27 00:47:13;;;;;;;8.37;3.73;;;7.70;99.90;;;;;;2603317;54;20030;31
2023/03/27 00:49:51;;;;;;;5.95;3.78;;;7.60;99.90;;;;;;2603216;54;20026;31
2023/03/27 00:52:28;;;;;;;6.03;4.05;;;7.60;99.90;;;;;;2603097;54;20791;31
2023/03/27 00:55:07;;;;;;;6.60;4.17;;;7.60;99.90;;;;;;2603262;54;20134;31
2023/03/27 00:57:46;;;;;;;7.95;4.40;;;7.60;99.90;;;;;;2602280;54;20037;31
2023/03/27 01:00:23;;;;;;;7.22;3.88;;;7.50;99.90;;;;;;2701558;39;20548;31
2023/03/27 01:02:59;;;;;;;7.90;4.30;;;7.50;99.90;;;;;;2603325;54;20089;31
2023/03/27 01:05:34;;;;;;;7.95;4.45;;;7.50;99.90;;;;;;2701549;39;20702;31
2023/03/27 01:08:10;;;;;;;9.30;5.03;;;7.50;99.90;;;;;;2701547;39;20496;31
2023/03/27 01:10:55;;;;;;;9.45;4.75;;;7.50;99.90;;;;;;2701557;39;20371;31
2023/03/27 01:13:42;;;;;;;7.63;5.40;;;7.50;99.90;;;;;;2603343;54;20022;31
2023/03/27 01:16:21;;;;;;;7.35;4.95;;;7.50;99.90;;;;;;2603145;54;20023;31
2023/03/27 01:19:06;;;;;;;7.68;5.28;;;7.50;99.90;;;;;;2701452;39;20485;31
2023/03/27 01:22:08;;;;;;;11.40;6.10;;;7.50;99.90;;;;;;2603241;54;19934;31
2023/03/27 01:24:59;;;;;;;9.05;5.32;;;7.50;99.90;;;;;;2621422;47;20100;31
2023/03/27 01:27:46;;;;;;;11.07;5.78;;;7.50;99.90;;;;;;2603000;54;20030;31
2023/03/27 01:30:24;;;;;;;11.07;5.32;;;7.50;99.90;;;;;;2603115;54;20027;31
2023/03/27 01:33:27;;;;;;;9.23;5.35;;;7.40;99.90;;;;;;2602953;54;20027;31
2023/03/27 01:36:29;;;;;;;9.40;5.63;;;7.50;99.90;;;;;;2602889;54;20832;31
2023/03/27 01:39:36;;;;;;;6.75;5.15;;;7.50;99.90;;;;;;2602958;54;20554;31
2023/03/27 01:42:16;;;;;;;7.43;4.93;;;7.40;99.90;;;;;;2621557;47;20787;31
2023/03/27 01:44:54;;;;;;;8.40;5.57;;;7.40;99.90;;;;;;2603309;54;20033;31
2023/03/27 01:47:36;;;;;;;8.55;5.22;;;7.40;99.90;;;;;;2603827;54;20037;31
2023/03/27 01:50:17;;;;;;;11.18;5.57;;;7.40;99.90;;;;;;2603132;54;20640;31
2023/03/27 01:52:55;;;;;;;10.55;5.78;;;7.40;99.90;;;;;;2622257;46;20033;31
2023/03/27 01:55:37;;;;;;;11.30;6.20;;;7.40;99.90;;;;;;2622448;46;20034;31
2023/03/27 01:58:13;;;;;;;15.55;8.18;;;7.40;99.90;;;;;;2603880;54;20639;31
2023/03/27 02:00:52;;;;;;;14.65;9.32;;;7.40;99.90;;;;;;2622174;46;20022;31
2023/03/27 02:03:30;;;;;;;16.42;11.00;;;7.40;99.90;;;;;;2603691;54;20046;31
2023/03/27 02:06:08;;;;;;;24.50;13.93;;;7.40;99.90;;;;;;2603914;54;20073;31
2023/03/27 02:08:46;;;;;;;24.90;15.45;;;7.30;99.90;;;;;;2622339;46;20022;31
2023/03/27 02:11:29;;;;;;;29.40;16.75;;;7.20;99.90;;;;;;2603708;54;20048;31
2023/03/27 02:14:06;;;;;;;27.45;15.90;;;7.20;99.90;;;;;;2603870;54;20026;31
2023/03/27 02:16:44;;;;;;;26.75;16.00;;;7.20;99.90;;;;;;2702111;39;20529;31
2023/03/27 02:19:23;;;;;;;27.27;17.38;;;7.10;99.90;;;;;;2603760;54;20034;31
2023/03/27 02:21:59;;;;;;;22.05;14.38;;;7.10;99.90;;;;;;2603703;54;20561;31
2023/03/27 02:24:37;;;;;;;24.10;15.73;;;7.00;99.90;;;;;;2603495;54;20760;31
2023/03/27 02:27:19;;;;;;;27.13;16.38;;;7.00;99.90;;;;;;2603916;54;20655;31
2023/03/27 02:29:58;;;;;;;26.20;15.90;;;6.90;99.90;;;;;;2603602;54;20026;31
2023/03/27 02:32:39;;;;;;;27.20;16.20;;;6.90;99.90;;;;;;2603586;54;20120;31
2023/03/27 02:35:26;;;;;;;24.75;16.15;;;6.80;99.90;;;;;;2606972;46;22400;31
2023/03/27 02:38:07;;;;;;;25.63;18.13;;;6.80;99.90;;;;;;2603540;54;20064;31
2023/03/27 02:40:52;;;;;;;28.95;18.50;;;6.70;99.90;;;;;;2603586;54;20037;31
2023/03/27 02:43:53;;;;;;;31.70;19.45;;;6.70;99.90;;;;;;2603667;54;20053;31
2023/03/27 02:46:43;;;;;;;28.73;18.80;;;6.70;99.90;;;;;;2622009;46;20034;31
2023/03/27 02:49:22;;;;;;;30.88;18.80;;;6.60;99.90;;;;;;2621651;46;20037;31
2023/03/27 02:52:02;;;;;;;30.38;18.02;;;6.50;99.90;;;;;;2603729;54;20033;31
2023/03/27 02:54:39;;;;;;;29.08;19.33;;;6.50;99.90;;;;;;2773311;31;21745;31
2023/03/27 02:57:17;;;;;;;23.58;15.32;;;6.50;99.90;;;;;;2603260;54;20042;31
2023/03/27 03:00:23;;;;;;;29.15;16.02;;;6.40;99.90;;;;;;2603288;54;20101;31
2023/03/27 03:03:26;;;;;;;25.38;13.30;;;6.30;99.90;;;;;;2603359;54;20115;31
2023/03/27 03:06:14;;;;;;;27.08;12.82;;;6.10;99.90;;;;;;2621925;46;20045;31
2023/03/27 03:08:50;;;;;;;20.00;11.52;;;6.10;99.90;;;;;;2603373;54;21397;31
2023/03/27 03:11:26;;;;;;;23.90;11.60;;;6.00;99.90;;;;;;2603453;54;20871;31
2023/03/27 03:14:02;;;;;;;19.25;10.15;;;6.00;99.90;;;;;;2622133;46;20034;31
2023/03/27 03:16:40;;;;;;;18.55;9.10;;;5.90;99.90;;;;;;2603365;54;25023;31
2023/03/27 03:19:15;;;;;;;17.75;9.82;;;5.80;99.90;;;;;;2621735;46;20575;31
2023/03/27 03:21:53;;;;;;;14.38;5.70;;;5.80;99.90;;;;;;2621647;46;20033;31
2023/03/27 03:24:29;;;;;;;11.43;4.28;;;5.70;99.90;;;;;;2603269;54;20023;31
2023/03/27 03:27:07;;;;;;;15.17;5.00;;;5.60;99.90;;;;;;2621455;46;20775;31
2023/03/27 03:29:52;;;;;;;13.40;4.53;;;5.50;99.90;;;;;;2603304;54;20900;31
2023/03/27 03:32:36;;;;;;;20.27;4.95;;;5.40;99.90;;;;;;2603436;54;20027;31
2023/03/27 03:35:14;;;;;;;16.83;4.68;;;5.30;99.90;;;;;;2621886;46;20064;31
2023/03/27 03:37:50;;;;;;;16.90;5.00;;;5.30;99.90;;;;;;2603328;54;20791;31
2023/03/27 03:40:26;;;;;;;12.57;3.70;;;5.20;99.90;;;;;;2621683;46;20912;31
2023/03/27 03:43:05;;;;;;;18.45;4.05;;;5.10;99.90;;;;;;2602681;54;20049;31
2023/03/27 03:45:41;;;;;;;10.85;3.80;;;5.10;99.90;;;;;;2701442;39;20575;31
2023/03/27 03:48:20;;;;;;;15.98;3.60;;;5.00;99.90;;;;;;2622028;46;20081;31
2023/03/27 03:50:56;;;;;;;9.05;3.15;;;4.90;99.90;;;;;;2603356;54;20022;31
2023/03/27 03:53:33;;;;;;;13.97;3.77;;;4.80;99.90;;;;;;2603328;54;20031;31
2023/03/27 03:56:10;;;;;;;8.05;2.55;;;4.80;99.90;;;;;;2603140;54;20058;31
2023/03/27 03:58:45;;;;;;;9.60;3.50;;;4.60;99.90;;;;;;2621942;46;20026;31
2023/03/27 04:01:19;;;;;;;6.75;2.60;;;4.50;99.90;;;;;;2603224;54;20034;31
2023/03/27 04:04:02;;;;;;;13.40;4.25;;;4.30;99.90;;;;;;2621490;46;20949;31
2023/03/27 04:06:57;;;;;;;6.57;3.05;;;4.30;99.90;;;;;;2603391;54;20033;31
2023/03/27 04:09:38;;;;;;;7.60;2.53;;;4.10;99.90;;;;;;2603176;54;20113;31
2023/03/27 04:12:16;;;;;;;7.63;3.10;;;4.00;99.90;;;;;;2603307;54;20085;31
2023/03/27 04:14:59;;;;;;;7.85;2.80;;;3.70;99.90;;;;;;2603243;54;20022;31
2023/03/27 04:18:00;;;;;;;4.25;2.30;;;3.50;99.90;;;;;;2603097;54;20026;31
2023/03/27 04:20:40;;;;;;;10.67;3.43;;;3.50;99.90;;;;;;2701534;39;20508;31
2023/03/27 04:23:20;;;;;;;9.63;2.37;;;3.40;99.90;;;;;;2603193;54;20090;31
2023/03/27 04:25:58;;;;;;;6.57;2.83;;;3.30;99.90;;;;;;2603146;54;20060;31
2023/03/27 04:28:43;;;;;;;9.85;1.85;;;3.10;99.90;;;;;;2701861;39;21514;31
2023/03/27 04:31:45;;;;;;;10.00;4.10;;;3.10;99.90;;;;;;2603204;54;20125;31
2023/03/27 04:34:40;;;;;;;8.20;2.80;;;2.90;99.90;;;;;;2603351;54;20299;31
2023/03/27 04:37:21;;;;;;;9.00;3.03;;;3.00;99.90;;;;;;2621367;46;20023;31
2023/03/27 04:40:30;;;;;;;11.18;3.58;;;3.00;99.90;;;;;;2603070;54;20042;31
2023/03/27 04:43:06;;;;;;;10.10;4.10;;;3.00;99.90;;;;;;2603220;54;20069;31
2023/03/27 04:45:41;;;;;;;;;;;2.90;99.90;;;;;;2701944;39;21620;31
2023/03/27 04:48:16;;;;;;;11.10;4.50;;;2.90;99.90;;;;;;2603339;54;19935;31
2023/03/27 04:51:02;;;;;;;11.10;4.22;;;2.90;99.90;;;;;;2603134;54;20819;31
2023/03/27 04:53:44;;;;;;;13.17;5.30;;;3.00;99.90;;;;;;2701532;39;20509;31
2023/03/27 04:56:21;;;;;;;12.13;5.10;;;3.00;99.90;;;;;;2621270;47;20968;31
2023/03/27 04:59:02;;;;;;;12.73;4.73;;;3.00;99.90;;;;;;2603064;54;20076;31
2023/03/27 05:01:38;;;;;;;12.45;5.05;;;3.00;99.90;;;;;;2603307;54;20033;31
2023/03/27 05:04:33;;;;;;;11.95;4.28;;;3.00;99.90;;;;;;2621565;47;20072;31
2023/03/27 05:07:29;;;;;;;11.50;4.10;;;3.00;99.90;;;;;;2602786;54;20079;31
2023/03/27 05:10:09;;;;;;;6.47;3.10;;;3.00;99.90;;;;;;2602939;54;20049;31
2023/03/27 05:12:44;;;;;;;9.50;4.50;;;3.00;99.90;;;;;;2603109;54;20369;31
2023/03/27 05:15:23;;;;;;;7.32;3.92;;;3.00;99.90;;;;;;2603020;54;20031;31
2023/03/27 05:18:01;;;;;;;5.50;3.33;;;2.90;99.90;;;;;;2603116;54;20089;31
2023/03/27 05:20:39;;;;;;;6.50;2.63;;;2.90;99.90;;;;;;2622601;47;20643;31
2023/03/27 05:23:16;;;;;;;3.50;2.00;;;2.80;99.90;;;;;;2603764;54;20022;31
2023/03/27 05:25:55;;;;;;;7.63;2.90;;;2.80;99.90;;;;;;2702302;39;20617;31
2023/03/27 05:28:46;;;;;;;3.42;1.50;;;2.80;99.90;;;;;;2603893;54;19935;31
2023/03/27 05:31:23;;;;;;;1.15;0.70;;;2.70;99.90;;;;;;2603807;54;20034;31
2023/03/27 05:34:22;;;;;;;7.38;2.38;;;2.60;99.90;;;;;;2603727;54;20038;31
2023/03/27 05:37:04;;;;;;;5.80;2.88;;;2.50;99.90;;;;;;2702497;39;20473;31
2023/03/27 05:39:47;;;;;;;5.70;2.15;;;2.50;99.90;;;;;;2603953;54;20029;31
2023/03/27 05:42:27;;;;;;;3.85;1.88;;;2.50;99.90;;;;;;2603758;54;20058;31
2023/03/27 05:45:04;;;;;;;5.32;2.55;;;2.50;99.90;;;;;;2603831;54;20037;31
2023/03/27 05:47:47;;;;;;;6.85;2.50;;;2.50;99.90;;;;;;2603760;54;20019;31
2023/03/27 05:50:24;;;;;;;2.30;1.55;;;2.40;99.90;;;;;;2603752;54;20046;31
2023/03/27 05:53:01;;;;;;;8.02;2.97;;;2.40;99.90;;;;;;2622031;46;21220;31
2023/03/27 05:55:45;;;;;;;5.07;2.35;;;2.20;99.90;;;;;;2603577;54;20566;31
2023/03/27 05:58:23;;;;;;;5.93;2.55;;;2.20;99.90;;;;;;2603701;54;20045;31
2023/03/27 06:00:59;;;;;;;8.32;2.70;;;2.10;99.90;;;;;;2603693;54;20779;31
2023/03/27 06:03:37;;;;;;;4.90;2.20;;;2.10;99.90;;;;;;2622522;46;20034;31
2023/03/27 06:06:22;;;;;;;5.65;2.60;;;2.00;99.90;;;;;;2603680;54;20603;31
2023/03/27 06:09:04;;;;;;;4.83;2.50;;;2.00;99.90;;;;;;2702604;39;21006;31
2023/03/27 06:11:41;;;;;;;5.18;3.17;;;1.90;99.90;;;;;;2603697;54;20034;31
2023/03/27 06:14:20;;;;;;;6.80;3.30;;;1.80;99.90;;;;;;2603718;54;20749;31
2023/03/27 06:17:16;;;;;;;8.18;3.17;;;1.80;99.90;;;;;;2603948;54;20993;31
2023/03/27 06:19:59;;;;;;;5.93;3.90;;;1.80;99.90;;;;;;2702043;39;20477;31
2023/03/27 06:22:41;;;;;;;6.25;4.90;;;1.70;99.90;;;;;;2603615;54;20887;31
2023/03/27 06:25:17;;;;;;;10.53;5.10;;;1.70;99.90;;;;;;2603620;54;20042;31
2023/03/27 06:27:53;;;;;;;6.05;4.55;;;1.70;99.90;;;;;;2603476;54;20250;31
2023/03/27 06:30:32;;;;;;;9.73;5.40;;;1.70;99.90;;;;;;2603184;54;20542;31
2023/03/27 06:33:46;;;;;;;11.20;5.40;;;1.70;99.90;;;;;;2603529;54;20033;31
2023/03/27 06:36:34;;;;;;;7.80;4.82;;;1.60;99.90;;;;;;2603603;54;20256;31
2023/03/27 06:39:09;;;;;;;8.05;4.35;;;1.60;99.90;;;;;;2603638;54;20031;31
2023/03/27 06:41:49;;;;;;;9.18;5.22;;;1.60;99.90;;;;;;2603658;54;20871;31
2023/03/27 06:44:39;;;;;;;8.55;4.80;;;1.60;99.90;;;;;;2720325;39;21643;31
2023/03/27 06:47:28;;;;;;;10.70;5.50;;;1.60;99.90;;;;;;2603725;54;20577;31
2023/03/27 06:50:23;;;;;;;8.68;6.05;;;1.60;99.90;;;;;;2603746;54;20060;31
2023/03/27 06:53:01;;;;;;;7.90;5.70;;;1.60;99.90;;;;;;2603527;54;20780;31
2023/03/27 06:55:46;;;;;;;10.00;6.22;;;1.70;99.90;;;;;;2603455;54;20081;31
2023/03/27 06:58:21;;;;;;;11.25;6.25;;;1.70;99.90;;;;;;2603539;54;20033;31
2023/03/27 07:00:57;;;;;;;12.95;5.95;;;1.60;99.90;;;;;;2603506;54;20147;31
2023/03/27 07:04:05;;;;;;;9.75;5.95;;;1.70;99.90;;;;;;2603618;54;20053;31
2023/03/27 07:07:03;;;;;;;10.43;5.53;;;1.70;99.90;;;;;;2603339;54;20858;31
2023/03/27 07:09:44;;;;;;;11.68;5.20;;;1.70;99.90;;;;;;2603420;54;20026;31
2023/03/27 07:12:22;;;;;;;5.57;4.03;;;1.80;99.90;;;;;;2603567;54;20096;31
2023/03/27 07:14:59;;;;;;;7.70;4.45;;;1.80;99.90;;;;;;2603482;54;20048;31
2023/03/27 07:17:36;;;;;;;8.27;3.97;;;1.80;99.90;;;;;;2603457;54;20030;31
2023/03/27 07:20:28;;;;;;;10.05;4.50;;;1.80;99.90;;;;;;2702237;39;21011;31
2023/03/27 07:23:10;;;;;;;9.13;4.40;;;1.80;99.90;;;;;;2603423;54;20027;31
2023/03/27 07:26:03;;;;;;;8.02;4.20;;;1.90;99.90;;;;;;2603456;54;20715;31
2023/03/27 07:29:02;;;;;;;8.00;4.35;;;2.00;99.90;;;;;;2603525;54;20553;31
2023/03/27 07:31:36;;;;;;;7.00;3.78;;;2.20;99.90;;;;;;2701948;39;20553;31
2023/03/27 07:34:19;;;;;;;8.10;3.50;;;2.20;99.90;;;;;;2603545;54;20026;31
2023/03/27 07:37:21;;;;;;;5.15;2.60;;;2.30;99.90;;;;;;2603479;54;20112;31
2023/03/27 07:40:20;;;;;;;9.55;3.35;;;2.40;99.90;;;;;;2603470;54;20026;31
2023/03/27 07:43:29;;;;;;;7.32;2.60;;;2.40;99.90;;;;;;2603386;54;20026;31
2023/03/27 07:46:08;;;;;;;5.85;2.50;;;2.40;99.90;;;;;;2603452;54;20026;31
2023/03/27 07:48:49;;;;;;;6.68;2.40;;;2.40;99.90;;;;;;2701974;39;20479;31
2023/03/27 07:51:28;;;;;;;9.57;3.13;;;2.40;99.90;;;;;;2603421;54;20026;31
2023/03/27 07:54:12;;;;;;;;;;;2.40;99.90;;;;;;2603451;54;20026;31
2023/03/27 07:56:54;;;;;;;6.45;2.40;;;2.50;99.90;;;;;;2603390;54;19935;31
2023/03/27 08:00:02;;;;;;;5.00;1.98;;;2.50;99.90;;;;;;2603152;54;20022;31
2023/03/27 08:02:50;;;;;;;3.65;1.98;;;2.70;99.90;;;;;;2603284;54;20029;31
2023/03/27 08:05:27;;;;;;;5.13;1.90;;;2.80;99.90;;;;;;2602695;54;20027;31
2023/03/27 08:08:14;;;;;;;3.17;1.58;;;2.90;99.90;;;;;;2621800;46;20023;31
2023/03/27 08:11:05;;;;;;;4.28;1.75;;;3.00;99.90;;;;;;2603266;54;20026;31
2023/03/27 08:13:53;;;;;;;5.33;1.67;;;3.00;99.90;;;;;;2603307;54;20839;31
2023/03/27 08:16:29;;;;;;;3.85;1.45;;;3.00;99.90;;;;;;2603385;54;20903;31
2023/03/27 08:19:05;;;;;;;2.33;1.27;;;3.10;99.90;;;;;;2603202;54;20744;31
2023/03/27 08:21:46;;;;;;;3.55;1.80;;;3.00;99.90;;;;;;2621812;46;20049;31
2023/03/27 08:24:24;;;;;;;3.63;1.67;;;3.10;99.90;;;;;;2603308;54;21540;31
2023/03/27 08:27:30;;;;;;;2.97;1.38;;;3.10;99.90;;;;;;2701969;39;21090;31
2023/03/27 08:30:08;;;;;;;5.25;1.98;;;3.00;99.90;;;;;;2603381;54;21368;31
2023/03/27 08:32:47;;;;;;;3.47;1.38;;;3.00;99.90;;;;;;2602370;54;20030;31
2023/03/27 08:35:22;;;;;;;6.18;1.48;;;2.90;99.90;;;;;;2603106;54;20856;31
2023/03/27 08:37:59;;;;;;;2.80;1.50;;;2.80;99.90;;;;;;2621712;46;20882;31
2023/03/27 08:41:03;;;;;;;4.85;1.50;;;2.90;99.90;;;;;;2603021;54;20899;31
2023/03/27 08:43:47;;;;;;;4.43;1.48;;;2.90;99.90;;;;;;2603127;54;20033;31
2023/03/27 08:46:28;;;;;;;2.83;1.42;;;2.90;99.90;;;;;;2603016;54;20887;31
2023/03/27 08:49:11;;;;;;;4.50;1.30;;;2.90;99.90;;;;;;2603215;54;20026;31
2023/03/27 08:51:51;;;;;;;5.33;1.77;;;2.90;99.90;;;;;;2603276;54;20842;31
2023/03/27 08:54:27;;;;;;;2.60;1.60;;;3.00;99.90;;;;;;2602848;54;20034;31
2023/03/27 08:57:02;;;;;;;2.93;1.60;;;3.00;99.90;;;;;;2603078;54;20061;31
2023/03/27 08:59:41;;;;;;;5.40;1.40;;;3.00;99.90;;;;;;2602927;54;20247;31
2023/03/27 09:02:24;;;;;;;3.20;1.30;;;3.00;99.90;;;;;;2603021;54;20856;31
2023/03/27 09:05:02;;;;;;;3.17;1.50;;;3.00;99.90;;;;;;2603073;54;20052;31
2023/03/27 09:07:41;;;;;;;6.25;1.67;;;3.10;99.90;;;;;;2602972;54;20027;31
2023/03/27 09:10:33;;;;;;;4.75;1.70;;;3.10;99.90;;;;;;2602966;54;20920;31
2023/03/27 09:13:19;;;;;;;5.18;2.00;;;3.10;99.90;;;;;;2602999;54;20085;31
2023/03/27 09:15:59;;;;;;;4.15;1.77;;;3.10;99.90;;;;;;2602952;54;19938;31
2023/03/27 09:18:37;;;;;;;5.32;1.80;;;3.10;99.90;;;;;;2602915;54;20044;31
2023/03/27 09:21:20;;;;;;;3.80;1.75;;;3.10;99.90;;;;;;2603023;54;20027;31
2023/03/27 09:23:58;;;;;;;2.95;1.42;;;3.10;99.90;;;;;;2603183;54;20875;31
2023/03/27 09:26:55;;;;;;;4.38;1.73;;;3.00;99.90;;;;;;2602971;54;21000;31
2023/03/27 09:29:55;;;;;;;2.60;1.50;;;3.10;99.90;;;;;;2621513;47;20030;31
2023/03/27 09:33:00;;;;;;;3.45;1.92;;;3.10;99.90;;;;;;2602785;54;20046;31
2023/03/27 09:35:39;;;;;;;3.03;1.40;;;3.00;99.90;;;;;;2602946;54;20887;31
2023/03/27 09:38:26;;;;;;;6.28;2.08;;;3.00;99.90;;;;;;2602790;54;20034;31
2023/03/27 09:41:05;;;;;;;4.82;2.20;;;3.10;99.90;;;;;;2602642;54;20033;31
2023/03/27 09:43:46;;;;;;;5.90;2.97;;;3.10;99.90;;;;;;2602843;54;20034;31
2023/03/27 09:46:22;;;;;;;4.40;2.20;;;3.10;99.90;;;;;;2602936;54;20242;31
2023/03/27 09:49:05;;;;;;;3.92;1.92;;;3.10;99.90;;;;;;2602786;54;20099;31
2023/03/27 09:51:48;;;;;;;4.45;1.63;;;3.10;99.90;;;;;;2602903;54;20037;31
2023/03/27 09:57:16;;;;;;;11.20;1.55;;;3.20;99.90;;;;;;2701155;39;21297;31
2023/03/27 10:00:00;;;;;;;2.80;1.20;;;3.20;99.90;;;;;;2719358;39;20485;31
2023/03/27 10:02:37;;;;;;;2.90;1.30;;;3.20;99.90;;;;;;2602723;54;20026;31
2023/03/27 10:05:20;;;;;;;8.02;2.22;;;3.20;99.90;;;;;;2603225;54;20054;31
2023/03/27 10:08:03;;;;;;;2.45;1.27;;;3.40;99.90;;;;;;2702175;39;21345;31
2023/03/27 10:10:57;;;;;;;3.20;2.00;;;3.40;99.90;;;;;;2621980;46;20022;31
2023/03/27 10:13:53;;;;;;;3.70;1.50;;;3.50;99.90;;;;;;2603557;54;19942;31
2023/03/27 10:16:31;;;;;;;5.88;2.15;;;3.40;99.90;;;;;;2622040;46;20808;31
2023/03/27 10:19:21;;;;;;;4.07;1.95;;;3.50;99.90;;;;;;2603553;54;20030;31
2023/03/27 10:21:59;;;;;;;3.50;2.00;;;3.50;99.90;;;;;;2603663;54;20022;31
2023/03/27 10:24:43;;;;;;;4.43;2.47;;;3.60;99.90;;;;;;2603687;54;20916;31
2023/03/27 10:27:50;;;;;;;2.20;1.38;;;3.50;99.90;;;;;;2603672;54;20088;31
2023/03/27 10:30:43;;;;;;;6.50;2.85;;;3.60;99.90;;;;;;2603795;54;20023;31
2023/03/27 10:33:34;;;;;;;9.18;3.75;;;3.70;99.90;;;;;;2603696;54;20050;31
2023/03/27 10:36:23;;;;;;;6.03;2.28;;;3.90;99.90;;;;;;2603560;54;20026;31
2023/03/27 10:39:02;;;;;;;4.15;1.80;;;4.10;99.90;;;;;;2603694;54;20030;31
2023/03/27 10:42:08;;;;;;;3.42;1.35;;;4.10;99.90;;;;;;2603532;54;20809;31
2023/03/27 10:44:47;;;;;;;4.63;1.80;;;4.60;99.90;;;;;;2603630;54;20034;31
2023/03/27 10:47:24;;;;;;;4.25;1.90;;;4.60;99.90;;;;;;2603670;54;20037;31
2023/03/27 10:50:05;;;;;;;4.53;1.40;;;4.50;99.90;;;;;;2603505;54;20085;31
2023/03/27 10:52:54;;;;;;;3.45;1.25;;;4.30;99.90;;;;;;2603365;54;20870;31
2023/03/27 10:55:47;;;;;;;4.18;1.70;;;4.20;99.90;;;;;;2603646;54;20033;31
2023/03/27 10:58:33;;;;;;;3.10;1.75;;;4.10;99.90;;;;;;2603434;54;20033;31
2023/03/27 11:01:13;;;;;;;5.65;2.15;;;4.10;99.90;;;;;;2622055;46;20564;31
2023/03/27 11:03:55;;;;;;;1.95;0.93;;;4.10;99.90;;;;;;2603565;54;20860;31
2023/03/27 11:06:35;;;;;;;1.95;1.00;;;4.20;99.90;;;;;;2603675;54;20087;31
2023/03/27 11:09:16;;;;;;;3.03;1.42;;;4.20;99.90;;;;;;2603509;54;20741;31
2023/03/27 11:12:04;;;;;;;5.53;1.30;;;4.30;99.90;;;;;;2603268;54;20748;31
2023/03/27 11:14:48;;;;;;;1.30;0.90;;;4.40;99.90;;;;;;2603421;54;20808;31
2023/03/27 11:17:30;;;;;;;3.03;1.05;;;4.40;99.90;;;;;;2603486;54;20049;31
2023/03/27 11:20:30;;;;;;;2.60;1.50;;;4.50;99.90;;;;;;2603371;54;20074;31
2023/03/27 11:23:27;;;;;;;4.35;1.23;;;4.60;99.90;;;;;;2603611;54;20053;31
2023/03/27 11:26:22;;;;;;;3.58;1.27;;;4.80;99.90;;;;;;2603694;54;20022;31
2023/03/27 11:29:04;;;;;;;7.45;2.30;;;4.80;99.90;;;;;;2621959;46;20770;31
2023/03/27 11:31:54;;;;;;;5.40;1.60;;;4.90;99.90;;;;;;2701765;39;20473;31
2023/03/27 11:34:51;;;;;;;2.95;1.08;;;4.90;99.90;;;;;;2603554;54;20042;31
2023/03/27 11:37:47;;;;;;;1.50;1.00;;;4.90;99.90;;;;;;2603541;54;20038;31
2023/03/27 11:40:26;;;;;;;3.13;1.42;;;4.80;99.90;;;;;;2603149;54;20946;31
2023/03/27 11:43:06;;;;;;;3.75;1.30;;;4.80;99.90;;;;;;2603384;54;20030;31
2023/03/27 11:45:46;;;;;;;6.75;1.45;;;5.00;99.90;;;;;;2603387;54;20035;31
2023/03/27 11:49:00;;;;;;;2.47;1.40;;;5.00;99.90;;;;;;2603214;54;20565;31
2023/03/27 11:51:56;;;;;;;2.05;1.13;;;5.00;99.90;;;;;;2701582;39;20520;31
2023/03/27 11:54:46;;;;;;;1.67;0.95;;;5.00;99.90;;;;;;2603020;54;20085;31
2023/03/27 11:57:28;;;;;;;1.90;0.90;;;5.00;99.90;;;;;;2701717;39;20374;31
2023/03/27 12:00:21;;;;;;;2.20;1.20;;;5.00;99.90;;;;;;2603388;54;20577;31
2023/03/27 12:03:40;;;;;;;4.80;1.25;;;4.90;99.90;;;;;;2603380;54;20891;31
2023/03/27 12:06:30;;;;;;;2.17;1.23;;;4.80;99.90;;;;;;2603079;54;20023;31
2023/03/27 12:09:30;;;;;;;2.00;1.20;;;4.80;99.90;;;;;;2621582;46;20952;31
2023/03/27 12:12:40;;;;;;;4.97;1.20;;;4.80;99.90;;;;;;2603257;54;20863;31
2023/03/27 12:15:34;;;;;;;1.50;0.80;;;4.80;99.90;;;;;;2621763;46;20128;31
2023/03/27 12:18:15;;;;;;;2.35;0.90;;;4.90;99.90;;;;;;2720421;39;20551;31
2023/03/27 12:21:07;;;;;;;1.20;0.60;;;5.00;99.90;;;;;;2621606;46;20023;31
2023/03/27 12:23:43;;;;;;;3.30;0.98;;;5.10;99.90;;;;;;2603393;54;20082;31
2023/03/27 12:26:55;;;;;;;7.88;0.98;;;5.20;99.90;;;;;;2603272;54;21493;31
2023/03/27 12:29:56;;;;;;;2.77;0.90;;;5.20;99.90;;;;;;2603004;54;20564;31
2023/03/27 12:35:06;;;;;;;4.73;2.17;;;5.30;99.90;;;;;;2602617;54;20057;31
2023/03/27 12:37:51;;;;;;;2.15;0.95;;;5.40;99.90;;;;;;2603390;54;20025;31
2023/03/27 12:40:40;;;;;;;1.15;0.70;;;5.40;99.90;;;;;;2603041;54;20831;31
2023/03/27 12:43:45;;;;;;;2.63;0.65;;;5.60;99.90;;;;;;2603168;54;20027;31
2023/03/27 12:46:39;;;;;;;1.90;0.60;;;5.60;99.90;;;;;;2621287;46;20898;31
2023/03/27 12:49:40;;;;;;;2.10;0.80;;;5.60;99.90;;;;;;2701210;39;20458;31
2023/03/27 12:52:37;;;;;;;1.00;0.50;;;5.70;99.90;;;;;;2603334;54;21578;31
2023/03/27 12:55:36;;;;;;;0.93;0.50;;;6.00;99.90;;;;;;2603053;54;20034;31
2023/03/27 12:58:34;;;;;;;1.00;0.57;;;6.10;99.90;;;;;;2603130;54;20027;31
2023/03/27 13:01:38;;;;;;;1.40;0.60;;;6.00;99.90;;;;;;2602810;54;20239;31
2023/03/27 13:04:41;;;;;;;3.50;0.70;;;6.00;99.90;;;;;;2603100;54;19989;31
2023/03/27 13:07:21;;;;;;;1.88;0.60;;;5.90;99.90;;;;;;2621500;47;20054;31
2023/03/27 13:10:28;;;;;;;4.43;0.90;;;5.80;99.90;;;;;;2602897;54;21457;31
2023/03/27 13:13:04;;;;;;;2.28;0.77;;;5.80;99.90;;;;;;2620878;47;20518;31
2023/03/27 13:15:54;;;;;;;3.53;0.82;;;6.00;99.90;;;;;;2602970;54;20112;31
2023/03/27 13:18:39;;;;;;;1.00;0.50;;;6.00;99.90;;;;;;2603121;54;19935;31
2023/03/27 13:21:22;;;;;;;1.10;0.50;;;6.10;99.90;;;;;;2603024;54;21444;31
2023/03/27 13:24:17;;;;;;;1.67;0.50;;;6.10;99.90;;;;;;2621280;47;20023;31
2023/03/27 13:26:58;;;;;;;4.32;1.55;;;6.10;99.90;;;;;;2602912;54;20081;31
2023/03/27 13:29:33;;;;;;;2.47;0.67;;;6.10;99.90;;;;;;2602580;54;20031;31
2023/03/27 13:32:34;;;;;;;2.13;0.70;;;6.00;99.90;;;;;;2602998;54;20022;31
2023/03/27 13:35:28;;;;;;;1.30;0.40;;;6.00;99.90;;;;;;2602911;54;20819;31
2023/03/27 13:38:12;;;;;;;1.85;0.45;;;5.90;99.90;;;;;;2602849;54;20027;31
2023/03/27 13:41:35;;;;;;;1.50;0.70;;;5.90;99.90;;;;;;2621957;47;20023;31
2023/03/27 13:44:23;;;;;;;2.05;0.52;;;5.80;99.90;;;;;;2603692;54;25027;31
2023/03/27 13:47:03;;;;;;;1.23;0.33;;;5.70;99.90;;;;;;2603626;54;20759;31
2023/03/27 13:49:53;;;;;;;4.95;1.20;;;5.60;99.90;;;;;;2603025;54;20921;31
2023/03/27 13:52:30;;;;;;;;;;;5.60;99.90;;;;;;2603875;54;20081;31
2023/03/27 13:55:33;;;;;;;1.77;0.70;;;5.60;99.90;;;;;;2603857;54;19957;31
2023/03/27 13:58:55;;;;;;;2.00;0.70;;;5.60;99.90;;;;;;2603840;54;20849;31
2023/03/27 14:01:38;;;;;;;2.65;0.90;;;5.60;99.90;;;;;;2603493;54;20029;31
2023/03/27 14:04:41;;;;;;;1.30;0.63;;;5.60;99.90;;;;;;2603475;54;19934;31
2023/03/27 14:07:40;;;;;;;1.23;0.50;;;5.70;99.90;;;;;;2603671;54;20026;31
2023/03/27 14:10:43;;;;;;;2.13;0.70;;;5.80;99.90;;;;;;2603593;54;20494;31
2023/03/27 14:13:27;;;;;;;2.28;1.00;;;5.90;99.90;;;;;;2603466;54;20053;31
2023/03/27 14:16:04;;;;;;;3.83;1.40;;;6.00;99.90;;;;;;2603633;54;20068;31
2023/03/27 14:18:54;;;;;;;2.15;0.88;;;6.00;99.90;;;;;;2603668;54;20124;31
2023/03/27 14:21:31;;;;;;;1.40;0.60;;;5.90;99.90;;;;;;2603711;54;20030;31
2023/03/27 14:24:22;;;;;;;2.50;0.80;;;5.90;99.90;;;;;;2603730;54;20026;31
2023/03/27 14:27:05;;;;;;;1.17;0.50;;;5.80;99.90;;;;;;2603544;54;20884;31
2023/03/27 14:29:45;;;;;;;2.13;0.80;;;5.70;99.90;;;;;;2602672;54;20030;31
2023/03/27 14:32:21;;;;;;;2.58;1.30;;;5.60;99.90;;;;;;2621959;46;20041;31
2023/03/27 14:35:04;;;;;;;1.55;0.80;;;5.40;99.90;;;;;;2621967;46;20789;31
2023/03/27 14:37:47;;;;;;;2.70;0.90;;;5.30;99.90;;;;;;2603706;54;20033;31
2023/03/27 14:40:46;;;;;;;3.00;0.80;;;5.30;99.90;;;;;;2603714;54;20031;31
2023/03/27 14:43:24;;;;;;;4.00;0.98;;;5.20;99.90;;;;;;2603424;54;20022;31
2023/03/27 14:46:08;;;;;;;1.30;0.70;;;5.10;99.90;;;;;;2616487;46;20031;31